sensor_id;sensor_type;location;lat;lon;timestamp;temperature;humidity
7720;DHT22;3902;49.474;8.616;2023-07-31T00:00:36;20.20;99.90
7720;DHT22;3902;49.474;8.616;2023-07-31T00:03:01;20.20;99.90
7720;DHT22;3902;49.474;8.616;2023-07-31T00:05:27;20.20;99.90
7720;DHT22;3902;49.474;8.616;2023-07-31T00:07:52;20.20;99.90
7720;DHT22;3902;49.474;8.616;2023-07-31T00:10:20;20.20;99.90
7720;DHT22;3902;49.474;8.616;2023-07-31T00:12:45;20.20;99.90
7720;DHT22;3902;49.474;8.616;2023-07-31T00:15:12;20.10;99.90
7720;DHT22;3902;49.474;8.616;2023-07-31T00:17:38;20.10;99.90
7720;DHT22;3902;49.474;8.616;2023-07-31T00:20:04;20.10;99.90
7720;DHT22;3902;49.474;8.616;2023-07-31T00:22:29;20.10;99.90
7720;DHT22;3902;49.474;8.616;2023-07-31T00:24:56;20.10;99.90
7720;DHT22;3902;49.474;8.616;2023-07-31T00:27:22;20.20;99.90
7720;DHT22;3902;49.474;8.616;2023-07-31T00:29:47;20.10;99.90
7720;DHT22;3902;49.474;8.616;2023-07-31T00:32:13;20.10;99.90
7720;DHT22;3902;49.474;8.616;2023-07-31T00:34:38;20.10;99.90
7720;DHT22;3902;49.474;8.616;2023-07-31T00:37:04;20.10;99.90
7720;DHT22;3902;49.474;8.616;2023-07-31T00:39:30;20.10;99.90
7720;DHT22;3902;49.474;8.616;2023-07-31T00:41:59;20.10;99.90
7720;DHT22;3902;49.474;8.616;2023-07-31T00:44:25;20.10;99.90
7720;DHT22;3902;49.474;8.616;2023-07-31T00:46:51;20.10;99.90
7720;DHT22;3902;49.474;8.616;2023-07-31T00:49:16;20.10;99.90
7720;DHT22;3902;49.474;8.616;2023-07-31T00:51:42;20.10;99.90
7720;DHT22;3902;49.474;8.616;2023-07-31T00:54:08;20.10;99.90
7720;DHT22;3902;49.474;8.616;2023-07-31T00:56:33;20.10;99.90
7720;DHT22;3902;49.474;8.616;2023-07-31T00:58:59;20.10;99.90
7720;DHT22;3902;49.474;8.616;2023-07-31T01:01:24;20.10;99.90
7720;DHT22;3902;49.474;8.616;2023-07-31T01:03:51;20.10;99.90
7720;DHT22;3902;49.474;8.616;2023-07-31T01:06:39;20.00;99.90
7720;DHT22;3902;49.474;8.616;2023-07-31T01:11:52;20.00;99.90
7720;DHT22;3902;49.474;8.616;2023-07-31T01:14:18;20.00;99.90
7720;DHT22;3902;49.474;8.616;2023-07-31T01:16:44;20.00;99.90
7720;DHT22;3902;49.474;8.616;2023-07-31T01:19:11;19.90;99.90
7720;DHT22;3902;49.474;8.616;2023-07-31T01:25:05;19.90;99.90
7720;DHT22;3902;49.474;8.616;2023-07-31T01:28:17;19.90;99.90
7720;DHT22;3902;49.474;8.616;2023-07-31T01:30:40;19.90;99.90
7720;DHT22;3902;49.474;8.616;2023-07-31T01:33:06;19.90;99.90
7720;DHT22;3902;49.474;8.616;2023-07-31T01:35:37;19.90;99.90
7720;DHT22;3902;49.474;8.616;2023-07-31T01:38:03;19.90;99.90
7720;DHT22;3902;49.474;8.616;2023-07-31T01:40:29;19.90;99.90
7720;DHT22;3902;49.474;8.616;2023-07-31T01:42:55;19.90;99.90
7720;DHT22;3902;49.474;8.616;2023-07-31T01:45:21;19.80;99.90
7720;DHT22;3902;49.474;8.616;2023-07-31T01:47:47;19.80;99.90
7720;DHT22;3902;49.474;8.616;2023-07-31T01:50:13;19.80;99.90
7720;DHT22;3902;49.474;8.616;2023-07-31T01:52:38;19.90;99.90
7720;DHT22;3902;49.474;8.616;2023-07-31T01:55:04;19.80;99.90
7720;DHT22;3902;49.474;8.616;2023-07-31T01:57:30;19.80;99.90
7720;DHT22;3902;49.474;8.616;2023-07-31T01:59:56;19.80;99.90
7720;DHT22;3902;49.474;8.616;2023-07-31T02:02:22;19.80;99.90
7720;DHT22;3902;49.474;8.616;2023-07-31T02:04:48;19.70;99.90
7720;DHT22;3902;49.474;8.616;2023-07-31T02:07:14;19.60;99.90
7720;DHT22;3902;49.474;8.616;2023-07-31T02:09:39;19.60;99.90
7720;DHT22;3902;49.474;8.616;2023-07-31T02:12:05;19.60;99.90
7720;DHT22;3902;49.474;8.616;2023-07-31T02:14:31;19.60;99.90
7720;DHT22;3902;49.474;8.616;2023-07-31T02:16:56;19.60;99.90
7720;DHT22;3902;49.474;8.616;2023-07-31T02:19:22;19.60;99.90
7720;DHT22;3902;49.474;8.616;2023-07-31T02:21:47;19.60;99.90
7720;DHT22;3902;49.474;8.616;2023-07-31T02:24:13;19.60;99.90
7720;DHT22;3902;49.474;8.616;2023-07-31T02:26:38;19.60;99.90
7720;DHT22;3902;49.474;8.616;2023-07-31T02:29:04;19.50;99.90
7720;DHT22;3902;49.474;8.616;2023-07-31T02:31:30;19.60;99.90
7720;DHT22;3902;49.474;8.616;2023-07-31T02:33:55;19.60;99.90
7720;DHT22;3902;49.474;8.616;2023-07-31T02:36:21;19.60;99.90
7720;DHT22;3902;49.474;8.616;2023-07-31T02:38:46;19.60;99.90
7720;DHT22;3902;49.474;8.616;2023-07-31T02:41:12;19.50;99.90
7720;DHT22;3902;49.474;8.616;2023-07-31T02:43:37;19.50;99.90
7720;DHT22;3902;49.474;8.616;2023-07-31T02:46:03;19.50;99.90
7720;DHT22;3902;49.474;8.616;2023-07-31T02:48:28;19.50;99.90
7720;DHT22;3902;49.474;8.616;2023-07-31T02:50:54;19.40;99.90
7720;DHT22;3902;49.474;8.616;2023-07-31T02:53:19;19.40;99.90
7720;DHT22;3902;49.474;8.616;2023-07-31T02:55:45;19.50;99.90
7720;DHT22;3902;49.474;8.616;2023-07-31T02:58:10;19.40;99.90
7720;DHT22;3902;49.474;8.616;2023-07-31T03:00:36;19.50;99.90
7720;DHT22;3902;49.474;8.616;2023-07-31T03:03:06;19.40;99.90
7720;DHT22;3902;49.474;8.616;2023-07-31T03:05:32;19.40;99.90
7720;DHT22;3902;49.474;8.616;2023-07-31T03:07:57;19.40;99.90
7720;DHT22;3902;49.474;8.616;2023-07-31T03:10:23;19.30;99.90
7720;DHT22;3902;49.474;8.616;2023-07-31T03:12:49;19.30;99.90
7720;DHT22;3902;49.474;8.616;2023-07-31T03:15:14;19.40;99.90
7720;DHT22;3902;49.474;8.616;2023-07-31T03:17:40;19.30;99.90
7720;DHT22;3902;49.474;8.616;2023-07-31T03:20:05;19.30;99.90
7720;DHT22;3902;49.474;8.616;2023-07-31T03:22:31;19.30;99.90
7720;DHT22;3902;49.474;8.616;2023-07-31T03:24:57;19.30;99.90
7720;DHT22;3902;49.474;8.616;2023-07-31T03:27:22;19.30;99.90
7720;DHT22;3902;49.474;8.616;2023-07-31T03:29:48;19.20;99.90
7720;DHT22;3902;49.474;8.616;2023-07-31T03:32:16;19.20;99.90
7720;DHT22;3902;49.474;8.616;2023-07-31T03:34:42;19.20;99.90
7720;DHT22;3902;49.474;8.616;2023-07-31T03:37:07;19.20;99.90
7720;DHT22;3902;49.474;8.616;2023-07-31T03:39:34;19.20;99.90
7720;DHT22;3902;49.474;8.616;2023-07-31T03:42:00;19.20;99.90
7720;DHT22;3902;49.474;8.616;2023-07-31T03:44:25;19.20;99.90
7720;DHT22;3902;49.474;8.616;2023-07-31T03:46:51;19.20;99.90
7720;DHT22;3902;49.474;8.616;2023-07-31T03:49:17;19.20;99.90
7720;DHT22;3902;49.474;8.616;2023-07-31T03:51:42;19.20;99.90
7720;DHT22;3902;49.474;8.616;2023-07-31T03:54:08;19.20;99.90
7720;DHT22;3902;49.474;8.616;2023-07-31T03:56:33;19.10;99.90
7720;DHT22;3902;49.474;8.616;2023-07-31T03:58:59;19.10;99.90
7720;DHT22;3902;49.474;8.616;2023-07-31T04:01:24;19.20;99.90
7720;DHT22;3902;49.474;8.616;2023-07-31T04:03:50;19.30;99.90
7720;DHT22;3902;49.474;8.616;2023-07-31T04:06:16;19.30;99.90
7720;DHT22;3902;49.474;8.616;2023-07-31T04:08:44;19.30;99.90
7720;DHT22;3902;49.474;8.616;2023-07-31T04:11:10;19.20;99.90
7720;DHT22;3902;49.474;8.616;2023-07-31T04:13:36;19.30;99.90
7720;DHT22;3902;49.474;8.616;2023-07-31T04:16:01;19.30;99.90
7720;DHT22;3902;49.474;8.616;2023-07-31T04:18:27;19.30;99.90
7720;DHT22;3902;49.474;8.616;2023-07-31T04:20:52;19.30;99.90
7720;DHT22;3902;49.474;8.616;2023-07-31T04:23:18;19.30;99.90
7720;DHT22;3902;49.474;8.616;2023-07-31T04:25:43;19.30;99.90
7720;DHT22;3902;49.474;8.616;2023-07-31T04:28:09;19.40;99.90
7720;DHT22;3902;49.474;8.616;2023-07-31T04:30:34;19.40;99.90
7720;DHT22;3902;49.474;8.616;2023-07-31T04:33:00;19.30;99.90
7720;DHT22;3902;49.474;8.616;2023-07-31T04:35:25;19.40;99.90
7720;DHT22;3902;49.474;8.616;2023-07-31T04:37:51;19.40;99.90
7720;DHT22;3902;49.474;8.616;2023-07-31T04:40:16;19.30;99.90
7720;DHT22;3902;49.474;8.616;2023-07-31T04:42:42;19.40;99.90
7720;DHT22;3902;49.474;8.616;2023-07-31T04:45:08;19.40;99.90
7720;DHT22;3902;49.474;8.616;2023-07-31T04:47:34;19.40;99.90
7720;DHT22;3902;49.474;8.616;2023-07-31T04:50:00;19.40;99.90
7720;DHT22;3902;49.474;8.616;2023-07-31T04:52:25;19.40;99.90
7720;DHT22;3902;49.474;8.616;2023-07-31T04:54:51;19.40;99.90
7720;DHT22;3902;49.474;8.616;2023-07-31T04:57:16;19.40;99.90
7720;DHT22;3902;49.474;8.616;2023-07-31T04:59:42;19.40;99.90
7720;DHT22;3902;49.474;8.616;2023-07-31T05:02:08;19.40;99.90
7720;DHT22;3902;49.474;8.616;2023-07-31T05:04:34;19.40;99.90
7720;DHT22;3902;49.474;8.616;2023-07-31T05:06:59;19.50;99.90
7720;DHT22;3902;49.474;8.616;2023-07-31T05:09:25;19.40;99.90
7720;DHT22;3902;49.474;8.616;2023-07-31T05:11:50;19.50;99.90
7720;DHT22;3902;49.474;8.616;2023-07-31T05:14:16;19.50;99.90
7720;DHT22;3902;49.474;8.616;2023-07-31T05:16:41;19.40;99.90
7720;DHT22;3902;49.474;8.616;2023-07-31T05:19:07;19.50;99.90
7720;DHT22;3902;49.474;8.616;2023-07-31T05:21:33;19.50;99.90
7720;DHT22;3902;49.474;8.616;2023-07-31T05:23:58;19.50;99.90
7720;DHT22;3902;49.474;8.616;2023-07-31T05:26:24;19.60;99.90
7720;DHT22;3902;49.474;8.616;2023-07-31T05:28:49;19.60;99.90
7720;DHT22;3902;49.474;8.616;2023-07-31T05:31:15;19.60;99.90
7720;DHT22;3902;49.474;8.616;2023-07-31T05:33:40;19.50;99.90
7720;DHT22;3902;49.474;8.616;2023-07-31T05:36:06;19.40;99.90
7720;DHT22;3902;49.474;8.616;2023-07-31T05:38:31;19.40;99.90
7720;DHT22;3902;49.474;8.616;2023-07-31T05:40:57;19.40;99.90
7720;DHT22;3902;49.474;8.616;2023-07-31T05:43:22;19.30;99.90
7720;DHT22;3902;49.474;8.616;2023-07-31T05:45:48;19.40;99.90
7720;DHT22;3902;49.474;8.616;2023-07-31T05:48:13;19.40;99.90
7720;DHT22;3902;49.474;8.616;2023-07-31T05:50:39;19.40;99.90
7720;DHT22;3902;49.474;8.616;2023-07-31T05:53:05;19.30;99.90
7720;DHT22;3902;49.474;8.616;2023-07-31T05:55:33;19.40;99.90
7720;DHT22;3902;49.474;8.616;2023-07-31T05:57:58;19.40;99.90
7720;DHT22;3902;49.474;8.616;2023-07-31T06:00:24;19.40;99.90
7720;DHT22;3902;49.474;8.616;2023-07-31T06:02:49;19.40;99.90
7720;DHT22;3902;49.474;8.616;2023-07-31T06:05:15;19.40;99.90
7720;DHT22;3902;49.474;8.616;2023-07-31T06:07:41;19.40;99.90
7720;DHT22;3902;49.474;8.616;2023-07-31T06:10:07;19.40;99.90
7720;DHT22;3902;49.474;8.616;2023-07-31T06:12:34;19.40;99.90
7720;DHT22;3902;49.474;8.616;2023-07-31T06:15:00;19.40;99.90
7720;DHT22;3902;49.474;8.616;2023-07-31T06:17:25;19.40;99.90
7720;DHT22;3902;49.474;8.616;2023-07-31T06:19:54;19.40;99.90
7720;DHT22;3902;49.474;8.616;2023-07-31T06:22:20;19.40;99.90
7720;DHT22;3902;49.474;8.616;2023-07-31T06:24:46;19.50;99.90
7720;DHT22;3902;49.474;8.616;2023-07-31T06:27:12;19.50;99.90
7720;DHT22;3902;49.474;8.616;2023-07-31T06:29:37;19.50;99.90
7720;DHT22;3902;49.474;8.616;2023-07-31T06:32:03;19.60;99.90
7720;DHT22;3902;49.474;8.616;2023-07-31T06:34:29;19.60;99.90
7720;DHT22;3902;49.474;8.616;2023-07-31T06:36:56;19.60;99.90
7720;DHT22;3902;49.474;8.616;2023-07-31T06:39:21;19.60;99.90
7720;DHT22;3902;49.474;8.616;2023-07-31T06:41:47;19.70;99.90
7720;DHT22;3902;49.474;8.616;2023-07-31T06:44:12;19.70;99.90
7720;DHT22;3902;49.474;8.616;2023-07-31T06:46:38;19.70;99.90
7720;DHT22;3902;49.474;8.616;2023-07-31T06:49:03;19.70;99.90
7720;DHT22;3902;49.474;8.616;2023-07-31T06:51:29;19.70;99.90
7720;DHT22;3902;49.474;8.616;2023-07-31T06:53:57;19.80;99.90
7720;DHT22;3902;49.474;8.616;2023-07-31T06:56:23;19.80;99.90
7720;DHT22;3902;49.474;8.616;2023-07-31T06:58:49;19.80;99.90
7720;DHT22;3902;49.474;8.616;2023-07-31T07:01:14;19.80;99.90
7720;DHT22;3902;49.474;8.616;2023-07-31T07:03:40;19.80;99.90
7720;DHT22;3902;49.474;8.616;2023-07-31T07:06:05;19.80;99.90
7720;DHT22;3902;49.474;8.616;2023-07-31T07:08:31;19.80;99.90
7720;DHT22;3902;49.474;8.616;2023-07-31T07:10:57;19.80;99.90
7720;DHT22;3902;49.474;8.616;2023-07-31T07:13:22;19.80;99.90
7720;DHT22;3902;49.474;8.616;2023-07-31T07:15:49;19.80;99.90
7720;DHT22;3902;49.474;8.616;2023-07-31T07:18:15;19.80;99.90
7720;DHT22;3902;49.474;8.616;2023-07-31T07:20:52;19.80;99.90
7720;DHT22;3902;49.474;8.616;2023-07-31T07:23:18;19.70;99.90
7720;DHT22;3902;49.474;8.616;2023-07-31T07:25:45;19.70;99.90
7720;DHT22;3902;49.474;8.616;2023-07-31T07:28:11;19.70;99.90
7720;DHT22;3902;49.474;8.616;2023-07-31T07:30:36;19.70;99.90
7720;DHT22;3902;49.474;8.616;2023-07-31T07:33:02;19.70;99.90
7720;DHT22;3902;49.474;8.616;2023-07-31T07:35:28;19.80;99.90
7720;DHT22;3902;49.474;8.616;2023-07-31T07:37:54;19.80;99.90
7720;DHT22;3902;49.474;8.616;2023-07-31T07:40:20;19.80;99.90
7720;DHT22;3902;49.474;8.616;2023-07-31T07:42:45;19.90;99.90
7720;DHT22;3902;49.474;8.616;2023-07-31T07:45:11;19.90;99.90
7720;DHT22;3902;49.474;8.616;2023-07-31T07:47:38;19.90;99.90
7720;DHT22;3902;49.474;8.616;2023-07-31T07:50:04;19.90;99.90
7720;DHT22;3902;49.474;8.616;2023-07-31T07:52:30;19.90;99.90
7720;DHT22;3902;49.474;8.616;2023-07-31T07:54:56;19.90;99.90
7720;DHT22;3902;49.474;8.616;2023-07-31T07:57:21;19.90;99.90
7720;DHT22;3902;49.474;8.616;2023-07-31T07:59:47;19.90;99.90
7720;DHT22;3902;49.474;8.616;2023-07-31T08:02:12;19.90;99.90
7720;DHT22;3902;49.474;8.616;2023-07-31T08:04:38;20.00;99.90
7720;DHT22;3902;49.474;8.616;2023-07-31T08:07:04;20.00;99.90
7720;DHT22;3902;49.474;8.616;2023-07-31T08:09:29;20.00;99.90
7720;DHT22;3902;49.474;8.616;2023-07-31T08:11:55;20.10;99.90
7720;DHT22;3902;49.474;8.616;2023-07-31T08:14:23;20.10;99.90
7720;DHT22;3902;49.474;8.616;2023-07-31T08:16:48;20.20;99.90
7720;DHT22;3902;49.474;8.616;2023-07-31T08:19:14;20.30;99.90
7720;DHT22;3902;49.474;8.616;2023-07-31T08:21:39;20.30;99.90
7720;DHT22;3902;49.474;8.616;2023-07-31T08:24:05;20.30;99.90
7720;DHT22;3902;49.474;8.616;2023-07-31T08:26:31;20.40;99.90
7720;DHT22;3902;49.474;8.616;2023-07-31T08:28:56;20.50;99.90
7720;DHT22;3902;49.474;8.616;2023-07-31T08:31:22;20.60;99.90
7720;DHT22;3902;49.474;8.616;2023-07-31T08:33:48;20.50;99.90
7720;DHT22;3902;49.474;8.616;2023-07-31T08:36:14;20.60;99.90
7720;DHT22;3902;49.474;8.616;2023-07-31T08:38:39;20.70;99.90
7720;DHT22;3902;49.474;8.616;2023-07-31T08:41:05;20.70;99.90
7720;DHT22;3902;49.474;8.616;2023-07-31T08:43:32;20.70;99.90
7720;DHT22;3902;49.474;8.616;2023-07-31T08:45:59;20.80;99.90
7720;DHT22;3902;49.474;8.616;2023-07-31T08:48:25;20.80;99.90
7720;DHT22;3902;49.474;8.616;2023-07-31T08:50:52;20.80;99.90
7720;DHT22;3902;49.474;8.616;2023-07-31T08:53:18;20.80;99.90
7720;DHT22;3902;49.474;8.616;2023-07-31T08:55:44;20.90;99.90
7720;DHT22;3902;49.474;8.616;2023-07-31T08:58:10;20.90;99.90
7720;DHT22;3902;49.474;8.616;2023-07-31T09:00:37;21.00;99.90
7720;DHT22;3902;49.474;8.616;2023-07-31T09:03:09;21.10;99.90
7720;DHT22;3902;49.474;8.616;2023-07-31T09:05:36;21.10;99.90
7720;DHT22;3902;49.474;8.616;2023-07-31T09:08:05;21.20;99.90
7720;DHT22;3902;49.474;8.616;2023-07-31T09:10:31;21.10;99.90
7720;DHT22;3902;49.474;8.616;2023-07-31T09:12:57;21.10;99.90
7720;DHT22;3902;49.474;8.616;2023-07-31T09:15:23;21.00;99.90
7720;DHT22;3902;49.474;8.616;2023-07-31T09:17:59;21.10;99.90
7720;DHT22;3902;49.474;8.616;2023-07-31T09:20:26;21.20;99.90
7720;DHT22;3902;49.474;8.616;2023-07-31T09:22:52;21.30;99.90
7720;DHT22;3902;49.474;8.616;2023-07-31T09:25:25;21.40;99.90
7720;DHT22;3902;49.474;8.616;2023-07-31T09:27:57;21.50;99.90
7720;DHT22;3902;49.474;8.616;2023-07-31T09:30:23;21.50;99.90
7720;DHT22;3902;49.474;8.616;2023-07-31T09:32:50;21.60;99.90
7720;DHT22;3902;49.474;8.616;2023-07-31T09:35:22;21.70;99.90
7720;DHT22;3902;49.474;8.616;2023-07-31T09:37:57;21.60;99.90
7720;DHT22;3902;49.474;8.616;2023-07-31T09:40:29;21.60;99.90
7720;DHT22;3902;49.474;8.616;2023-07-31T09:43:00;21.60;99.90
7720;DHT22;3902;49.474;8.616;2023-07-31T09:45:26;21.60;99.90
7720;DHT22;3902;49.474;8.616;2023-07-31T09:47:53;21.70;99.90
7720;DHT22;3902;49.474;8.616;2023-07-31T09:50:21;21.70;99.90
7720;DHT22;3902;49.474;8.616;2023-07-31T09:52:47;21.80;99.90
7720;DHT22;3902;49.474;8.616;2023-07-31T09:55:13;21.80;99.90
7720;DHT22;3902;49.474;8.616;2023-07-31T09:57:40;21.90;99.90
7720;DHT22;3902;49.474;8.616;2023-07-31T10:00:09;22.00;99.90
7720;DHT22;3902;49.474;8.616;2023-07-31T10:02:36;22.20;99.90
7720;DHT22;3902;49.474;8.616;2023-07-31T10:05:03;22.30;99.90
7720;DHT22;3902;49.474;8.616;2023-07-31T10:07:30;22.30;99.90
7720;DHT22;3902;49.474;8.616;2023-07-31T10:10:00;22.30;99.90
7720;DHT22;3902;49.474;8.616;2023-07-31T10:12:27;22.30;99.90
7720;DHT22;3902;49.474;8.616;2023-07-31T10:14:56;22.30;99.90
7720;DHT22;3902;49.474;8.616;2023-07-31T10:17:23;22.30;99.90
7720;DHT22;3902;49.474;8.616;2023-07-31T10:19:49;22.20;99.90
7720;DHT22;3902;49.474;8.616;2023-07-31T10:22:15;22.30;99.90
7720;DHT22;3902;49.474;8.616;2023-07-31T10:24:46;22.30;99.90
7720;DHT22;3902;49.474;8.616;2023-07-31T10:27:11;22.10;99.90
7720;DHT22;3902;49.474;8.616;2023-07-31T10:29:39;22.10;99.90
7720;DHT22;3902;49.474;8.616;2023-07-31T10:32:06;22.10;99.90
7720;DHT22;3902;49.474;8.616;2023-07-31T10:34:35;22.10;99.90
7720;DHT22;3902;49.474;8.616;2023-07-31T10:40:05;22.50;99.90
7720;DHT22;3902;49.474;8.616;2023-07-31T10:42:44;22.60;99.90
7720;DHT22;3902;49.474;8.616;2023-07-31T10:45:10;22.70;99.90
7720;DHT22;3902;49.474;8.616;2023-07-31T10:47:43;22.70;99.90
7720;DHT22;3902;49.474;8.616;2023-07-31T10:50:14;22.70;99.90
7720;DHT22;3902;49.474;8.616;2023-07-31T10:52:45;22.70;99.90
7720;DHT22;3902;49.474;8.616;2023-07-31T10:55:29;22.70;99.90
7720;DHT22;3902;49.474;8.616;2023-07-31T10:57:56;22.70;99.90
7720;DHT22;3902;49.474;8.616;2023-07-31T11:00:25;22.70;99.90
7720;DHT22;3902;49.474;8.616;2023-07-31T11:05:44;22.40;99.90
7720;DHT22;3902;49.474;8.616;2023-07-31T11:08:17;22.40;99.90
7720;DHT22;3902;49.474;8.616;2023-07-31T11:10:45;22.40;99.90
7720;DHT22;3902;49.474;8.616;2023-07-31T11:13:10;22.40;99.90
7720;DHT22;3902;49.474;8.616;2023-07-31T11:15:36;22.50;99.90
7720;DHT22;3902;49.474;8.616;2023-07-31T11:18:02;22.40;99.90
7720;DHT22;3902;49.474;8.616;2023-07-31T11:20:35;22.50;99.90
7720;DHT22;3902;49.474;8.616;2023-07-31T11:23:02;22.50;99.90
7720;DHT22;3902;49.474;8.616;2023-07-31T11:25:30;22.40;99.90
7720;DHT22;3902;49.474;8.616;2023-07-31T11:27:57;22.50;99.90
7720;DHT22;3902;49.474;8.616;2023-07-31T11:30:22;22.50;99.90
7720;DHT22;3902;49.474;8.616;2023-07-31T11:32:49;22.60;99.90
7720;DHT22;3902;49.474;8.616;2023-07-31T11:35:15;22.60;99.90
7720;DHT22;3902;49.474;8.616;2023-07-31T11:37:44;22.60;99.90
7720;DHT22;3902;49.474;8.616;2023-07-31T11:40:11;22.70;99.90
7720;DHT22;3902;49.474;8.616;2023-07-31T11:42:37;22.60;99.90
7720;DHT22;3902;49.474;8.616;2023-07-31T11:45:08;22.50;99.90
7720;DHT22;3902;49.474;8.616;2023-07-31T11:47:36;22.50;99.90
7720;DHT22;3902;49.474;8.616;2023-07-31T11:50:06;22.50;99.90
7720;DHT22;3902;49.474;8.616;2023-07-31T11:52:37;22.50;99.90
7720;DHT22;3902;49.474;8.616;2023-07-31T11:55:04;22.50;99.90
7720;DHT22;3902;49.474;8.616;2023-07-31T11:57:30;22.60;99.90
7720;DHT22;3902;49.474;8.616;2023-07-31T11:59:56;22.60;99.90
7720;DHT22;3902;49.474;8.616;2023-07-31T12:02:22;22.60;99.90
7720;DHT22;3902;49.474;8.616;2023-07-31T12:04:48;22.70;99.90
7720;DHT22;3902;49.474;8.616;2023-07-31T12:07:14;22.70;99.90
7720;DHT22;3902;49.474;8.616;2023-07-31T12:09:54;22.80;99.90
7720;DHT22;3902;49.474;8.616;2023-07-31T12:12:21;22.70;99.90
7720;DHT22;3902;49.474;8.616;2023-07-31T12:14:47;22.80;99.90
7720;DHT22;3902;49.474;8.616;2023-07-31T12:17:14;22.80;99.90
7720;DHT22;3902;49.474;8.616;2023-07-31T12:19:39;22.80;99.90
7720;DHT22;3902;49.474;8.616;2023-07-31T12:22:15;22.80;99.90
7720;DHT22;3902;49.474;8.616;2023-07-31T12:24:44;22.90;99.90
7720;DHT22;3902;49.474;8.616;2023-07-31T12:27:14;22.90;99.90
7720;DHT22;3902;49.474;8.616;2023-07-31T12:29:44;23.00;99.90
7720;DHT22;3902;49.474;8.616;2023-07-31T12:32:23;23.00;99.90
7720;DHT22;3902;49.474;8.616;2023-07-31T12:34:54;23.00;99.90
7720;DHT22;3902;49.474;8.616;2023-07-31T12:37:21;23.10;99.90
7720;DHT22;3902;49.474;8.616;2023-07-31T12:39:47;23.10;99.90
7720;DHT22;3902;49.474;8.616;2023-07-31T12:42:12;23.00;99.90
7720;DHT22;3902;49.474;8.616;2023-07-31T12:44:38;23.00;99.90
7720;DHT22;3902;49.474;8.616;2023-07-31T12:47:04;22.90;99.90
7720;DHT22;3902;49.474;8.616;2023-07-31T12:49:29;22.80;99.90
7720;DHT22;3902;49.474;8.616;2023-07-31T12:51:55;22.80;99.90
7720;DHT22;3902;49.474;8.616;2023-07-31T12:54:20;22.80;99.90
7720;DHT22;3902;49.474;8.616;2023-07-31T12:56:46;22.80;99.90
7720;DHT22;3902;49.474;8.616;2023-07-31T12:59:11;22.80;99.90
7720;DHT22;3902;49.474;8.616;2023-07-31T13:01:37;22.80;99.90
7720;DHT22;3902;49.474;8.616;2023-07-31T13:04:03;22.90;99.90
7720;DHT22;3902;49.474;8.616;2023-07-31T13:06:29;22.90;99.90
7720;DHT22;3902;49.474;8.616;2023-07-31T13:08:55;22.90;99.90
7720;DHT22;3902;49.474;8.616;2023-07-31T13:11:21;23.10;99.90
7720;DHT22;3902;49.474;8.616;2023-07-31T13:13:46;23.10;99.90
7720;DHT22;3902;49.474;8.616;2023-07-31T13:16:12;23.20;99.90
7720;DHT22;3902;49.474;8.616;2023-07-31T13:18:37;23.20;99.90
7720;DHT22;3902;49.474;8.616;2023-07-31T13:21:03;23.30;99.90
7720;DHT22;3902;49.474;8.616;2023-07-31T13:23:28;23.30;99.90
7720;DHT22;3902;49.474;8.616;2023-07-31T13:25:54;23.30;99.90
7720;DHT22;3902;49.474;8.616;2023-07-31T13:28:19;23.40;99.90
7720;DHT22;3902;49.474;8.616;2023-07-31T13:30:45;23.40;99.90
7720;DHT22;3902;49.474;8.616;2023-07-31T13:33:11;23.50;99.90
7720;DHT22;3902;49.474;8.616;2023-07-31T13:35:37;23.60;99.90
7720;DHT22;3902;49.474;8.616;2023-07-31T13:38:02;23.60;99.90
7720;DHT22;3902;49.474;8.616;2023-07-31T13:40:28;23.60;99.90
7720;DHT22;3902;49.474;8.616;2023-07-31T13:42:53;23.60;99.90
7720;DHT22;3902;49.474;8.616;2023-07-31T13:45:20;23.50;99.90
7720;DHT22;3902;49.474;8.616;2023-07-31T13:47:45;23.50;99.90
7720;DHT22;3902;49.474;8.616;2023-07-31T13:50:11;23.60;99.90
7720;DHT22;3902;49.474;8.616;2023-07-31T13:52:36;23.60;99.90
7720;DHT22;3902;49.474;8.616;2023-07-31T13:55:02;23.50;99.90
7720;DHT22;3902;49.474;8.616;2023-07-31T13:57:27;23.50;99.90
7720;DHT22;3902;49.474;8.616;2023-07-31T13:59:53;23.50;99.90
7720;DHT22;3902;49.474;8.616;2023-07-31T14:02:19;23.40;99.90
7720;DHT22;3902;49.474;8.616;2023-07-31T14:04:44;23.40;99.90
7720;DHT22;3902;49.474;8.616;2023-07-31T14:07:11;23.40;99.90
7720;DHT22;3902;49.474;8.616;2023-07-31T14:09:36;23.30;99.90
7720;DHT22;3902;49.474;8.616;2023-07-31T14:12:02;23.20;99.90
7720;DHT22;3902;49.474;8.616;2023-07-31T14:14:28;23.20;99.90
7720;DHT22;3902;49.474;8.616;2023-07-31T14:16:53;23.10;99.90
7720;DHT22;3902;49.474;8.616;2023-07-31T14:19:19;23.10;99.90
7720;DHT22;3902;49.474;8.616;2023-07-31T14:21:45;23.00;99.90
7720;DHT22;3902;49.474;8.616;2023-07-31T14:24:11;23.00;99.90
7720;DHT22;3902;49.474;8.616;2023-07-31T14:26:36;23.00;99.90
7720;DHT22;3902;49.474;8.616;2023-07-31T14:29:02;23.00;99.90
7720;DHT22;3902;49.474;8.616;2023-07-31T14:31:28;23.00;99.90
7720;DHT22;3902;49.474;8.616;2023-07-31T14:33:53;23.00;99.90
7720;DHT22;3902;49.474;8.616;2023-07-31T14:36:19;23.10;99.90
7720;DHT22;3902;49.474;8.616;2023-07-31T14:38:44;23.20;99.90
7720;DHT22;3902;49.474;8.616;2023-07-31T14:41:10;23.20;99.90
7720;DHT22;3902;49.474;8.616;2023-07-31T14:43:36;23.20;99.90
7720;DHT22;3902;49.474;8.616;2023-07-31T14:46:01;23.20;99.90
7720;DHT22;3902;49.474;8.616;2023-07-31T14:48:27;23.30;99.90
7720;DHT22;3902;49.474;8.616;2023-07-31T14:50:53;23.30;99.90
7720;DHT22;3902;49.474;8.616;2023-07-31T14:53:19;23.30;99.90
7720;DHT22;3902;49.474;8.616;2023-07-31T14:55:44;23.30;99.90
7720;DHT22;3902;49.474;8.616;2023-07-31T14:58:10;23.40;99.90
7720;DHT22;3902;49.474;8.616;2023-07-31T15:00:36;23.40;99.90
7720;DHT22;3902;49.474;8.616;2023-07-31T15:03:02;23.40;99.90
7720;DHT22;3902;49.474;8.616;2023-07-31T15:05:28;23.50;99.90
7720;DHT22;3902;49.474;8.616;2023-07-31T15:07:54;23.60;99.90
7720;DHT22;3902;49.474;8.616;2023-07-31T15:10:19;23.60;99.90
7720;DHT22;3902;49.474;8.616;2023-07-31T15:12:45;23.70;99.90
7720;DHT22;3902;49.474;8.616;2023-07-31T15:15:11;23.70;99.90
7720;DHT22;3902;49.474;8.616;2023-07-31T15:17:37;23.70;99.90
7720;DHT22;3902;49.474;8.616;2023-07-31T15:20:03;23.80;99.90
7720;DHT22;3902;49.474;8.616;2023-07-31T15:22:31;23.80;99.90
7720;DHT22;3902;49.474;8.616;2023-07-31T15:24:56;23.80;99.90
7720;DHT22;3902;49.474;8.616;2023-07-31T15:27:46;23.70;99.90
7720;DHT22;3902;49.474;8.616;2023-07-31T15:30:12;23.70;99.90
7720;DHT22;3902;49.474;8.616;2023-07-31T15:32:38;23.60;99.90
7720;DHT22;3902;49.474;8.616;2023-07-31T15:35:04;23.60;99.90
7720;DHT22;3902;49.474;8.616;2023-07-31T15:37:30;23.50;99.90
7720;DHT22;3902;49.474;8.616;2023-07-31T15:39:57;23.30;99.90
7720;DHT22;3902;49.474;8.616;2023-07-31T15:42:23;23.40;99.90
7720;DHT22;3902;49.474;8.616;2023-07-31T15:44:52;23.30;99.90
7720;DHT22;3902;49.474;8.616;2023-07-31T15:47:18;23.20;99.90
7720;DHT22;3902;49.474;8.616;2023-07-31T15:49:45;23.30;99.90
7720;DHT22;3902;49.474;8.616;2023-07-31T15:52:10;23.30;99.90
7720;DHT22;3902;49.474;8.616;2023-07-31T15:54:36;23.30;99.90
7720;DHT22;3902;49.474;8.616;2023-07-31T15:57:01;23.30;99.90
7720;DHT22;3902;49.474;8.616;2023-07-31T15:59:27;23.30;99.90
7720;DHT22;3902;49.474;8.616;2023-07-31T16:01:53;23.30;99.90
7720;DHT22;3902;49.474;8.616;2023-07-31T16:04:18;23.20;99.90
7720;DHT22;3902;49.474;8.616;2023-07-31T16:06:44;23.10;99.90
7720;DHT22;3902;49.474;8.616;2023-07-31T16:09:10;23.20;99.90